createdAt,value
2022-10-05T00:01:00.971Z,12.10
2022-10-05T00:03:33.602Z,12.10
2022-10-05T00:06:00.513Z,12.10
2022-10-05T00:08:32.891Z,12.10
2022-10-05T00:11:00.168Z,12.20
2022-10-05T00:13:29.938Z,12.10
2022-10-05T00:16:09.234Z,12.10
2022-10-05T00:18:36.486Z,12.10
2022-10-05T00:21:29.486Z,12.10
2022-10-05T00:23:58.035Z,12.00
2022-10-05T00:26:27.195Z,12.00
2022-10-05T00:28:55.154Z,12.00
2022-10-05T00:31:25.249Z,12.00
2022-10-05T00:33:52.621Z,11.90
2022-10-05T00:36:19.470Z,11.90
2022-10-05T00:38:46.486Z,11.80
2022-10-05T00:41:24.466Z,11.80
2022-10-05T00:44:00.385Z,11.80
2022-10-05T00:46:44.000Z,11.80
2022-10-05T00:49:48.249Z,11.70
2022-10-05T00:52:57.154Z,11.70
2022-10-05T00:55:47.278Z,11.60
2022-10-05T00:58:28.685Z,11.60
2022-10-05T01:01:21.068Z,11.60
2022-10-05T01:03:53.222Z,11.50
2022-10-05T01:06:37.888Z,11.40
2022-10-05T01:09:31.822Z,11.40
2022-10-05T01:12:13.320Z,11.30
2022-10-05T01:14:43.221Z,11.30
2022-10-05T01:17:38.726Z,11.30
2022-10-05T01:20:30.573Z,11.30
2022-10-05T01:23:20.453Z,11.30
2022-10-05T01:26:07.922Z,11.30
2022-10-05T01:28:45.379Z,11.30
2022-10-05T01:31:42.137Z,11.30
2022-10-05T01:34:18.645Z,11.30
2022-10-05T01:37:02.706Z,11.30
2022-10-05T01:40:13.635Z,11.30
2022-10-05T01:42:55.933Z,11.30
2022-10-05T01:45:36.971Z,11.30
2022-10-05T01:48:34.954Z,11.30
2022-10-05T01:51:18.786Z,11.30
2022-10-05T01:53:55.692Z,11.20
2022-10-05T01:56:29.897Z,11.20
2022-10-05T01:59:03.852Z,11.20
2022-10-05T02:01:47.170Z,11.30
2022-10-05T02:05:00.490Z,11.30
2022-10-05T02:07:43.832Z,11.20
2022-10-05T02:10:27.177Z,11.20
2022-10-05T02:13:00.767Z,11.20
2022-10-05T02:15:45.123Z,11.20
2022-10-05T02:18:28.296Z,11.10
2022-10-05T02:20:58.337Z,11.10
2022-10-05T02:23:32.525Z,11.10
2022-10-05T02:26:01.586Z,11.00
2022-10-05T02:28:49.717Z,11.00
2022-10-05T02:31:21.354Z,10.90
2022-10-05T02:33:48.827Z,10.90
2022-10-05T02:36:27.353Z,10.90
2022-10-05T02:39:35.640Z,10.90
2022-10-05T02:42:29.334Z,10.80
2022-10-05T02:45:16.753Z,10.80
2022-10-05T02:48:16.383Z,10.80
2022-10-05T02:51:15.230Z,10.80
2022-10-05T02:54:14.324Z,10.80
2022-10-05T02:57:02.602Z,10.70
2022-10-05T02:59:44.357Z,10.70
2022-10-05T03:02:22.323Z,10.70
2022-10-05T03:05:12.818Z,10.70
2022-10-05T03:07:49.561Z,10.70
2022-10-05T03:10:25.588Z,10.70
2022-10-05T03:13:05.372Z,10.70
2022-10-05T03:16:00.129Z,10.80
2022-10-05T03:18:47.260Z,10.70
2022-10-05T03:21:38.581Z,10.70
2022-10-05T03:24:32.293Z,10.70
2022-10-05T03:27:14.973Z,10.70
2022-10-05T03:29:54.813Z,10.70
2022-10-05T03:32:42.788Z,10.70
2022-10-05T03:35:22.758Z,10.70
2022-10-05T03:38:01.273Z,10.70
2022-10-05T03:40:48.869Z,10.60
2022-10-05T03:43:34.993Z,10.70
2022-10-05T03:46:09.116Z,10.60
2022-10-05T03:48:44.374Z,10.60
2022-10-05T03:51:21.534Z,10.60
2022-10-05T03:53:54.667Z,10.60
2022-10-05T03:56:41.828Z,10.60
2022-10-05T03:59:20.575Z,10.60
2022-10-05T04:02:06.181Z,10.60
2022-10-05T04:05:05.467Z,10.60
2022-10-05T04:07:51.980Z,10.60
2022-10-05T04:10:52.287Z,10.60
2022-10-05T04:13:34.394Z,10.60
2022-10-05T04:16:08.650Z,10.60
2022-10-05T04:18:50.012Z,10.60
2022-10-05T04:21:31.270Z,10.60
2022-10-05T04:24:15.102Z,10.50
2022-10-05T04:26:57.561Z,10.50
2022-10-05T04:29:33.432Z,10.50
2022-10-05T04:32:15.315Z,10.40
2022-10-05T04:34:55.804Z,10.40
2022-10-05T04:37:47.571Z,10.40
2022-10-05T04:40:31.624Z,10.40
2022-10-05T04:43:28.061Z,10.30
2022-10-05T04:46:03.817Z,10.30
2022-10-05T04:49:04.759Z,10.30
2022-10-05T04:51:53.714Z,10.30
2022-10-05T04:54:50.333Z,10.30
2022-10-05T04:57:24.943Z,10.20
2022-10-05T05:00:02.738Z,10.20
2022-10-05T05:03:08.438Z,10.20
2022-10-05T05:05:53.116Z,10.20
2022-10-05T05:08:44.222Z,10.10
2022-10-05T05:11:43.329Z,10.10
2022-10-05T05:14:44.359Z,10.10
2022-10-05T05:17:33.106Z,10.00
2022-10-05T05:20:16.340Z,10.00
2022-10-05T05:23:04.465Z,10.00
2022-10-05T05:26:02.612Z,10.00
2022-10-05T05:29:08.775Z,10.00
2022-10-05T05:32:13.864Z,10.00
2022-10-05T05:34:59.326Z,10.00
2022-10-05T05:37:44.197Z,10.00
2022-10-05T05:40:44.754Z,9.90
2022-10-05T05:43:41.037Z,9.90
2022-10-05T05:47:01.882Z,9.90
2022-10-05T05:49:21.855Z,9.90
2022-10-05T05:52:01.944Z,9.90
2022-10-05T05:55:01.106Z,9.90
2022-10-05T05:57:40.758Z,9.90
2022-10-05T06:00:23.773Z,9.90
2022-10-05T06:03:28.928Z,9.90
2022-10-05T06:06:18.247Z,9.90
2022-10-05T06:08:59.170Z,9.90
2022-10-05T06:11:41.453Z,9.90
2022-10-05T06:14:29.099Z,10.00
2022-10-05T06:16:59.338Z,10.00
2022-10-05T06:19:28.119Z,10.10
2022-10-05T06:22:24.475Z,10.10
2022-10-05T06:25:03.977Z,10.10
2022-10-05T06:27:57.787Z,10.20
2022-10-05T06:30:26.401Z,10.20
2022-10-05T06:33:34.406Z,10.30
2022-10-05T06:36:22.222Z,10.30
2022-10-05T06:39:14.938Z,10.30
2022-10-05T06:42:09.025Z,10.30
2022-10-05T06:45:54.362Z,10.30
2022-10-05T06:48:41.518Z,10.40
2022-10-05T06:52:02.113Z,10.40
2022-10-05T06:54:47.937Z,10.40
2022-10-05T06:57:22.126Z,10.40
2022-10-05T07:00:00.674Z,10.50
2022-10-05T07:02:31.103Z,10.50
2022-10-05T07:05:19.680Z,10.50
2022-10-05T07:07:56.002Z,10.60
2022-10-05T07:10:32.241Z,10.70
2022-10-05T07:13:24.844Z,10.70
2022-10-05T07:16:10.463Z,10.80
2022-10-05T07:18:58.894Z,11.00
2022-10-05T07:21:55.441Z,11.10
2022-10-05T07:24:29.444Z,11.20
2022-10-05T07:27:12.309Z,11.30
2022-10-05T07:30:04.541Z,11.40
2022-10-05T07:33:02.184Z,11.60
2022-10-05T07:36:06.785Z,11.70
2022-10-05T07:38:43.065Z,11.80
2022-10-05T07:41:25.222Z,11.90
2022-10-05T07:44:21.019Z,12.00
2022-10-05T07:47:37.840Z,12.10
2022-10-05T07:50:33.677Z,12.20
2022-10-05T07:53:23.498Z,12.40
2022-10-05T07:55:56.514Z,12.50
2022-10-05T07:58:40.422Z,12.60
2022-10-05T08:01:19.525Z,12.70
2022-10-05T08:04:04.366Z,12.90
2022-10-05T08:06:50.143Z,13.00
2022-10-05T08:09:31.359Z,13.20
2022-10-05T08:12:15.346Z,13.30
2022-10-05T08:14:58.976Z,13.40
2022-10-05T08:17:44.441Z,13.60
2022-10-05T08:20:20.292Z,13.80
2022-10-05T08:23:11.745Z,13.80
2022-10-05T08:25:38.775Z,14.00
2022-10-05T08:28:15.273Z,14.20
2022-10-05T08:31:16.800Z,14.40
2022-10-05T08:34:04.677Z,14.60
2022-10-05T08:36:37.093Z,14.80
2022-10-05T08:39:12.293Z,14.90
2022-10-05T08:42:11.881Z,15.10
2022-10-05T08:45:13.990Z,15.20
2022-10-05T08:48:04.482Z,15.40
2022-10-05T08:50:59.273Z,15.60
2022-10-05T08:53:54.010Z,15.80
2022-10-05T08:56:48.969Z,16.00
2022-10-05T08:59:26.519Z,16.20
2022-10-05T09:01:56.282Z,16.30
2022-10-05T09:04:43.016Z,16.50
2022-10-05T09:07:22.147Z,16.60
2022-10-05T09:10:15.793Z,16.70
2022-10-05T09:13:10.445Z,16.90
2022-10-05T09:15:58.287Z,17.00
2022-10-05T09:18:52.410Z,17.10
2022-10-05T09:22:04.945Z,17.20
2022-10-05T09:24:57.096Z,17.30
2022-10-05T09:27:39.339Z,17.40
2022-10-05T09:30:35.757Z,17.60
2022-10-05T09:33:25.713Z,17.80
2022-10-05T09:36:26.690Z,18.10
2022-10-05T09:39:16.762Z,18.40
2022-10-05T09:42:13.212Z,18.60
2022-10-05T09:44:40.907Z,18.90
2022-10-05T09:47:59.753Z,19.20
2022-10-05T09:50:40.849Z,19.50
2022-10-05T09:53:10.506Z,19.90
2022-10-05T09:56:06.003Z,20.30
2022-10-05T09:59:15.213Z,20.60
2022-10-05T10:01:56.921Z,21.20
2022-10-05T10:04:45.377Z,21.80
2022-10-05T10:07:21.095Z,22.40
2022-10-05T10:10:20.304Z,23.00
2022-10-05T10:13:21.229Z,23.70
2022-10-05T10:16:12.612Z,24.30
2022-10-05T10:18:53.162Z,24.60
2022-10-05T10:21:45.544Z,24.80
2022-10-05T10:24:35.413Z,25.00
2022-10-05T10:27:27.324Z,24.90
2022-10-05T10:30:28.907Z,25.10
2022-10-05T10:33:15.482Z,25.50
2022-10-05T10:35:50.681Z,25.80
2022-10-05T10:38:49.526Z,26.00
2022-10-05T10:41:51.714Z,26.30
2022-10-05T10:44:48.021Z,26.40
2022-10-05T10:47:45.457Z,26.60
2022-10-05T10:50:39.997Z,26.60
2022-10-05T10:53:33.052Z,26.60
2022-10-05T10:56:18.604Z,26.50
2022-10-05T10:58:54.446Z,26.50
2022-10-05T11:01:33.409Z,26.40
2022-10-05T11:04:26.421Z,26.20
2022-10-05T11:07:14.822Z,26.10
2022-10-05T11:10:15.613Z,26.10
2022-10-05T11:12:48.660Z,26.20
2022-10-05T11:15:18.452Z,26.30
2022-10-05T11:18:09.971Z,26.40
2022-10-05T11:21:10.664Z,26.50
2022-10-05T11:24:14.901Z,26.60
2022-10-05T11:27:08.206Z,26.80
2022-10-05T11:30:01.832Z,26.90
2022-10-05T11:32:56.162Z,27.10
2022-10-05T11:35:49.130Z,27.40
2022-10-05T11:38:49.649Z,27.60
2022-10-05T11:41:51.553Z,27.80
2022-10-05T11:44:51.840Z,27.90
2022-10-05T11:47:27.926Z,28.20
2022-10-05T11:50:05.523Z,28.40
2022-10-05T11:52:50.301Z,28.60
2022-10-05T11:55:29.915Z,29.00
2022-10-05T11:57:58.298Z,29.40
2022-10-05T12:00:40.391Z,29.70
2022-10-05T12:03:37.812Z,30.10
2022-10-05T12:06:42.088Z,30.40
2022-10-05T12:09:33.348Z,30.70
2022-10-05T12:12:22.101Z,31.00
2022-10-05T12:15:02.671Z,31.20
2022-10-05T12:17:52.418Z,31.40
2022-10-05T12:20:22.758Z,31.50
2022-10-05T12:22:58.731Z,31.70
2022-10-05T12:25:37.841Z,31.90
2022-10-05T12:28:11.145Z,32.00
2022-10-05T12:31:16.566Z,32.10
2022-10-05T12:34:12.056Z,32.30
2022-10-05T12:37:05.615Z,32.50
2022-10-05T12:40:01.359Z,32.60
2022-10-05T12:42:41.914Z,32.60
2022-10-05T12:45:20.816Z,32.50
2022-10-05T12:48:12.584Z,32.40
2022-10-05T12:50:43.198Z,32.40
2022-10-05T12:53:22.353Z,32.40
2022-10-05T12:56:01.887Z,32.40
2022-10-05T12:58:42.306Z,32.40
2022-10-05T13:01:20.635Z,32.30
2022-10-05T13:04:00.131Z,32.20
2022-10-05T13:06:44.432Z,32.10
2022-10-05T13:09:31.965Z,32.10
2022-10-05T13:12:06.133Z,32.00
2022-10-05T13:14:48.104Z,31.90
2022-10-05T13:17:22.399Z,31.90
2022-10-05T13:20:03.000Z,31.90
2022-10-05T13:22:50.039Z,31.90
2022-10-05T13:25:31.154Z,31.90
2022-10-05T13:28:28.440Z,31.80
2022-10-05T13:31:20.461Z,31.80
2022-10-05T13:34:09.458Z,31.70
2022-10-05T13:36:48.690Z,31.60
2022-10-05T13:39:30.477Z,31.50
2022-10-05T13:42:09.234Z,31.50
2022-10-05T13:44:55.913Z,31.50
2022-10-05T13:47:38.857Z,31.40
2022-10-05T13:50:21.941Z,31.40
2022-10-05T13:53:24.259Z,31.40
2022-10-05T13:56:02.839Z,31.40
2022-10-05T13:58:36.547Z,31.40
2022-10-05T14:01:13.236Z,31.40
2022-10-05T14:03:40.049Z,31.40
2022-10-05T14:06:27.741Z,31.50
2022-10-05T14:08:54.568Z,31.50
2022-10-05T14:11:34.849Z,31.40
2022-10-05T14:14:14.016Z,31.40
2022-10-05T14:16:52.911Z,31.40
2022-10-05T14:19:30.790Z,31.40
2022-10-05T14:22:31.473Z,31.30
2022-10-05T14:25:12.324Z,31.10
2022-10-05T14:27:49.933Z,30.80
2022-10-05T14:30:23.680Z,30.60
2022-10-05T14:33:05.796Z,30.50
2022-10-05T14:35:51.622Z,30.40
2022-10-05T14:38:50.461Z,30.40
2022-10-05T14:41:27.273Z,30.40
2022-10-05T14:44:09.376Z,30.40
2022-10-05T14:46:38.492Z,30.40
2022-10-05T14:49:21.372Z,30.30
2022-10-05T14:51:49.617Z,30.30
2022-10-05T14:54:28.689Z,30.30
2022-10-05T14:57:06.545Z,30.20
2022-10-05T14:59:50.409Z,30.20
2022-10-05T15:02:44.993Z,30.10
2022-10-05T15:05:31.240Z,30.00
2022-10-05T15:08:27.161Z,29.90
2022-10-05T15:11:12.435Z,29.90
2022-10-05T15:13:44.910Z,29.80
2022-10-05T15:16:26.694Z,29.80
2022-10-05T15:19:20.933Z,29.90
2022-10-05T15:22:01.579Z,29.90
2022-10-05T15:24:45.386Z,29.90
2022-10-05T15:27:34.178Z,29.90
2022-10-05T15:30:07.662Z,29.80
2022-10-05T15:33:12.878Z,29.70
2022-10-05T15:36:04.635Z,29.60
2022-10-05T15:38:42.831Z,29.50
2022-10-05T15:41:20.057Z,29.40
2022-10-05T15:44:28.285Z,29.30
2022-10-05T15:46:58.777Z,29.20
2022-10-05T15:49:57.141Z,29.10
2022-10-05T15:52:36.053Z,29.00
2022-10-05T15:55:24.978Z,28.90
2022-10-05T15:58:16.089Z,28.70
2022-10-05T16:00:48.507Z,28.60
2022-10-05T16:03:48.610Z,28.50
2022-10-05T16:06:57.082Z,28.30
2022-10-05T16:09:35.709Z,28.20
2022-10-05T16:12:12.438Z,28.10
2022-10-05T16:14:58.089Z,28.00
2022-10-05T16:17:43.630Z,27.90
2022-10-05T16:20:25.477Z,27.90
2022-10-05T16:23:10.719Z,27.80
2022-10-05T16:25:52.486Z,27.60
2022-10-05T16:28:32.989Z,27.40
2022-10-05T16:31:10.395Z,27.30
2022-10-05T16:33:54.394Z,27.00
2022-10-05T16:36:50.235Z,26.70
2022-10-05T16:39:40.743Z,26.40
2022-10-05T16:42:42.041Z,26.10
2022-10-05T16:45:11.390Z,25.80
2022-10-05T16:47:56.479Z,25.50
2022-10-05T16:50:50.526Z,25.20
2022-10-05T16:53:38.618Z,24.90
2022-10-05T16:56:11.359Z,24.60
2022-10-05T16:58:59.173Z,24.40
2022-10-05T17:02:00.607Z,24.20
2022-10-05T17:04:27.306Z,23.90
2022-10-05T17:07:20.888Z,23.70
2022-10-05T17:09:55.922Z,23.60
2022-10-05T17:12:40.597Z,23.40
2022-10-05T17:15:23.905Z,23.20
2022-10-05T17:18:27.349Z,23.10
2022-10-05T17:20:56.668Z,23.00
2022-10-05T17:23:31.242Z,22.90
2022-10-05T17:26:12.788Z,22.80
2022-10-05T17:29:34.792Z,22.70
2022-10-05T17:32:05.920Z,22.60
2022-10-05T17:34:36.812Z,22.50
2022-10-05T17:37:17.430Z,22.40
2022-10-05T17:39:52.682Z,22.30
2022-10-05T17:42:39.530Z,22.20
2022-10-05T17:45:12.270Z,22.10
2022-10-05T17:47:55.265Z,22.10
2022-10-05T17:50:57.005Z,21.90
2022-10-05T17:53:55.465Z,21.80
2022-10-05T17:56:23.308Z,21.80
2022-10-05T17:58:54.424Z,21.70
2022-10-05T18:01:30.671Z,21.60
2022-10-05T18:04:12.283Z,21.50
2022-10-05T18:06:51.860Z,21.40
2022-10-05T18:09:30.806Z,21.40
2022-10-05T18:12:12.651Z,21.40
2022-10-05T18:15:12.963Z,21.30
2022-10-05T18:18:32.003Z,21.30
2022-10-05T18:21:13.923Z,21.20
2022-10-05T18:23:49.981Z,21.20
2022-10-05T18:26:54.167Z,21.10
2022-10-05T18:30:06.676Z,21.10
2022-10-05T18:32:57.648Z,21.10
2022-10-05T18:35:38.198Z,21.10
2022-10-05T18:38:07.839Z,21.10
2022-10-05T18:40:42.242Z,21.00
2022-10-05T18:43:26.402Z,21.00
2022-10-05T18:46:18.478Z,21.00
2022-10-05T18:49:00.466Z,21.10
2022-10-05T18:51:50.983Z,21.00
2022-10-05T18:54:33.096Z,21.00
2022-10-05T18:57:26.638Z,21.00
2022-10-05T19:00:16.856Z,21.00
2022-10-05T19:03:01.813Z,21.00
2022-10-05T19:05:48.661Z,21.00
2022-10-05T19:08:43.137Z,21.00
2022-10-05T19:11:38.406Z,21.00
2022-10-05T19:14:31.488Z,21.00
2022-10-05T19:17:13.205Z,21.00
2022-10-05T19:20:01.566Z,21.10
2022-10-05T19:22:42.061Z,21.10
2022-10-05T19:25:23.812Z,21.10
2022-10-05T19:28:17.479Z,21.10
2022-10-05T19:31:13.328Z,21.20
2022-10-05T19:34:16.558Z,21.10
2022-10-05T19:36:59.025Z,21.20
2022-10-05T19:39:34.735Z,21.10
2022-10-05T19:42:36.489Z,21.10
2022-10-05T19:45:09.216Z,21.20
2022-10-05T19:48:08.481Z,21.20
2022-10-05T19:50:38.642Z,21.10
2022-10-05T19:53:17.026Z,21.10
2022-10-05T19:55:47.227Z,21.10
2022-10-05T19:58:16.726Z,21.10
2022-10-05T20:00:45.692Z,21.10
2022-10-05T20:03:18.049Z,21.00
2022-10-05T20:05:45.725Z,21.00
2022-10-05T20:08:17.718Z,21.00
2022-10-05T20:10:45.559Z,21.00
2022-10-05T20:13:21.209Z,20.90
2022-10-05T20:16:27.746Z,20.90
2022-10-05T20:19:13.363Z,20.90
2022-10-05T20:21:47.438Z,20.90
2022-10-05T20:24:17.267Z,20.90
2022-10-05T20:27:16.071Z,20.90
2022-10-05T20:29:44.708Z,20.80
2022-10-05T20:32:17.622Z,20.80
2022-10-05T20:34:46.818Z,20.80
2022-10-05T20:37:16.150Z,20.80
2022-10-05T20:39:43.741Z,20.70
2022-10-05T20:42:11.517Z,20.70
2022-10-05T20:44:38.738Z,20.70
2022-10-05T20:47:08.551Z,20.70
2022-10-05T20:49:36.643Z,20.70
2022-10-05T20:52:04.872Z,20.70
2022-10-05T20:54:31.902Z,20.70
2022-10-05T20:56:58.790Z,20.70
2022-10-05T20:59:26.308Z,20.70
2022-10-05T21:01:53.253Z,20.80
2022-10-05T21:04:22.549Z,20.80
2022-10-05T21:06:49.649Z,20.80
2022-10-05T21:09:19.335Z,20.80
2022-10-05T21:11:47.458Z,20.90
2022-10-05T21:14:15.619Z,20.90
2022-10-05T21:16:43.635Z,20.90
2022-10-05T21:19:13.003Z,20.90
2022-10-05T21:21:40.666Z,20.90
2022-10-05T21:24:08.566Z,20.90
2022-10-05T21:26:36.940Z,21.00
2022-10-05T21:29:07.827Z,21.00
2022-10-05T21:31:37.745Z,21.00
2022-10-05T21:34:05.102Z,21.00
2022-10-05T21:36:32.494Z,21.00
2022-10-05T21:38:59.277Z,21.00
2022-10-05T21:41:26.038Z,21.00
2022-10-05T21:43:52.999Z,21.00
2022-10-05T21:46:22.755Z,21.00
2022-10-05T21:48:49.907Z,21.00
2022-10-05T21:51:18.861Z,21.00
2022-10-05T21:54:04.489Z,21.00
2022-10-05T21:56:36.062Z,21.00
2022-10-05T21:59:06.284Z,21.00
2022-10-05T22:01:35.850Z,20.90
2022-10-05T22:04:06.720Z,21.00
2022-10-05T22:06:35.281Z,20.90
2022-10-05T22:09:02.705Z,20.90
2022-10-05T22:11:29.567Z,20.90
2022-10-05T22:14:02.359Z,20.90
2022-10-05T22:16:32.695Z,20.90
2022-10-05T22:19:03.602Z,20.90
2022-10-05T22:21:30.931Z,20.90
2022-10-05T22:24:00.100Z,20.90
2022-10-05T22:26:26.866Z,20.90
2022-10-05T22:28:57.006Z,20.90
2022-10-05T22:31:24.209Z,20.90
2022-10-05T22:33:51.552Z,20.90
2022-10-05T22:36:19.171Z,20.80
2022-10-05T22:38:47.714Z,20.90
2022-10-05T22:41:18.016Z,20.80
2022-10-05T22:43:48.618Z,20.80
2022-10-05T22:46:15.583Z,20.80
2022-10-05T22:48:43.078Z,20.90
2022-10-05T22:51:10.193Z,20.80
2022-10-05T22:53:37.288Z,20.80
2022-10-05T22:56:09.702Z,20.80
2022-10-05T22:58:37.313Z,20.80
2022-10-05T23:01:06.510Z,20.80
2022-10-05T23:03:34.042Z,20.80
2022-10-05T23:06:05.974Z,20.80
2022-10-05T23:08:34.282Z,20.80
2022-10-05T23:11:07.826Z,20.80
2022-10-05T23:13:34.769Z,20.80
2022-10-05T23:16:15.988Z,20.80
2022-10-05T23:18:43.813Z,20.80
2022-10-05T23:21:11.581Z,20.80
2022-10-05T23:23:40.480Z,20.80
2022-10-05T23:26:09.039Z,20.70
2022-10-05T23:28:36.197Z,20.70
2022-10-05T23:31:06.642Z,20.70
2022-10-05T23:33:34.244Z,20.70
2022-10-05T23:36:04.446Z,20.70
2022-10-05T23:38:31.948Z,20.70
2022-10-05T23:40:59.701Z,20.60
2022-10-05T23:43:26.981Z,20.60
2022-10-05T23:45:53.663Z,20.60
2022-10-05T23:48:20.458Z,20.60
2022-10-05T23:50:48.195Z,20.50
2022-10-05T23:53:15.766Z,20.50
2022-10-05T23:55:42.790Z,20.40
2022-10-05T23:58:10.100Z,20.30
